createdAt,value
2019-05-09T00:01:33.577Z,100309.11
2019-05-09T00:04:05.718Z,100306.47
2019-05-09T00:06:37.328Z,100311.73
2019-05-09T00:09:09.068Z,100314.64
2019-05-09T00:11:41.136Z,100317.52
2019-05-09T00:14:13.723Z,100317.91
2019-05-09T00:16:45.802Z,100322.86
2019-05-09T00:19:17.952Z,100328.94
2019-05-09T00:21:51.366Z,100330.62
2019-05-09T00:24:23.882Z,100332.84
2019-05-09T00:26:55.583Z,100339.11
2019-05-09T00:29:36.058Z,100340.55
2019-05-09T00:32:24.722Z,100345.98
2019-05-09T00:35:04.680Z,100340.22
2019-05-09T00:37:53.638Z,100342.37
2019-05-09T00:40:25.917Z,100346.16
2019-05-09T00:42:57.723Z,100337.67
2019-05-09T00:45:47.361Z,100330.05
2019-05-09T00:48:22.941Z,100321.89
2019-05-09T00:50:54.556Z,100326.22
2019-05-09T00:53:26.302Z,100328.94
2019-05-09T00:55:58.430Z,100328.69
2019-05-09T00:58:30.124Z,100324.61
2019-05-09T01:01:04.419Z,100327.34
2019-05-09T01:03:36.716Z,100320.31
2019-05-09T01:06:08.393Z,100320.85
2019-05-09T01:08:40.248Z,100317.89
2019-05-09T01:11:15.326Z,100310.87
2019-05-09T01:13:45.414Z,100312.30
2019-05-09T01:16:17.476Z,100314.52
2019-05-09T01:18:49.573Z,100312.45
2019-05-09T01:21:23.795Z,100305.72
2019-05-09T01:23:56.309Z,100299.31
2019-05-09T01:26:27.978Z,100310.52
2019-05-09T01:28:59.861Z,100314.66
2019-05-09T01:31:33.258Z,100310.98
2019-05-09T01:34:16.694Z,100300.42
2019-05-09T01:37:05.148Z,100301.92
2019-05-09T01:39:37.423Z,100307.83
2019-05-09T01:42:09.176Z,100309.72
2019-05-09T01:44:41.246Z,100311.84
2019-05-09T01:47:14.062Z,100305.76
2019-05-09T01:49:46.009Z,100301.28
2019-05-09T01:52:18.159Z,100309.25
2019-05-09T01:54:50.271Z,100308.45
2019-05-09T01:57:23.464Z,100304.70
2019-05-09T01:59:55.173Z,100300.37
2019-05-09T02:02:27.377Z,100300.44
2019-05-09T02:04:58.991Z,100293.96
2019-05-09T02:07:30.749Z,100298.67
2019-05-09T02:10:03.533Z,100302.25
2019-05-09T02:12:35.310Z,100307.20
2019-05-09T02:15:13.061Z,100301.02
2019-05-09T02:18:05.217Z,100310.30
2019-05-09T02:20:36.603Z,100303.58
2019-05-09T02:23:08.549Z,100300.61
2019-05-09T02:25:40.534Z,100294.14
2019-05-09T02:28:14.159Z,100286.30
2019-05-09T02:30:45.874Z,100287.98
2019-05-09T02:33:19.421Z,100290.44
2019-05-09T02:35:57.052Z,100284.22
2019-05-09T02:38:24.958Z,100279.33
2019-05-09T02:40:59.517Z,100283.08
2019-05-09T02:43:30.424Z,100277.33
2019-05-09T02:46:09.722Z,100273.51
2019-05-09T02:48:40.423Z,100271.30
2019-05-09T02:51:12.265Z,100277.52
2019-05-09T02:53:43.793Z,100273.38
2019-05-09T02:56:18.753Z,100267.30
2019-05-09T02:58:51.001Z,100265.88
2019-05-09T03:01:39.367Z,100273.72
2019-05-09T03:04:11.436Z,100272.86
2019-05-09T03:06:43.217Z,100266.22
2019-05-09T03:09:15.155Z,100264.00
2019-05-09T03:11:48.577Z,100270.73
2019-05-09T03:14:20.624Z,100272.23
2019-05-09T03:16:52.386Z,100266.23
2019-05-09T03:19:24.351Z,100265.95
2019-05-09T03:22:00.527Z,100263.45
2019-05-09T03:24:32.485Z,100262.66
2019-05-09T03:27:08.842Z,100262.66
2019-05-09T03:29:42.432Z,100262.59
2019-05-09T03:32:14.501Z,100265.56
2019-05-09T03:34:47.794Z,100262.52
2019-05-09T03:37:19.592Z,100262.73
2019-05-09T03:39:51.747Z,100265.70
2019-05-09T03:42:38.027Z,100270.03
2019-05-09T03:44:58.099Z,100269.64
2019-05-09T03:47:31.428Z,100270.93
2019-05-09T03:50:17.880Z,100263.31
2019-05-09T03:52:49.483Z,100257.66
2019-05-09T03:55:22.992Z,100249.33
2019-05-09T03:57:59.463Z,100245.57
2019-05-09T04:00:31.505Z,100254.83
2019-05-09T04:03:04.303Z,100257.30
2019-05-09T04:05:37.673Z,100251.64
2019-05-09T04:08:19.197Z,100254.58
2019-05-09T04:10:53.950Z,100257.66
2019-05-09T04:13:28.305Z,100253.73
2019-05-09T04:16:00.389Z,100261.56
2019-05-09T04:18:32.466Z,100261.03
2019-05-09T04:21:04.330Z,100259.42
2019-05-09T04:23:37.874Z,100267.58
2019-05-09T04:26:13.868Z,100260.38
2019-05-09T04:28:47.212Z,100261.10
2019-05-09T04:31:18.830Z,100254.55
2019-05-09T04:33:50.922Z,100247.58
2019-05-09T04:36:24.081Z,100249.33
2019-05-09T04:38:57.804Z,100245.58
2019-05-09T04:41:29.564Z,100248.61
2019-05-09T04:44:05.183Z,100251.83
2019-05-09T04:46:34.831Z,100248.80
2019-05-09T04:49:08.192Z,100248.47
2019-05-09T04:51:40.471Z,100244.54
2019-05-09T04:54:12.149Z,100249.52
2019-05-09T04:56:47.277Z,100255.45
2019-05-09T04:59:20.035Z,100256.19
2019-05-09T05:02:09.120Z,100260.98
2019-05-09T05:04:41.098Z,100257.55
2019-05-09T05:07:13.071Z,100256.11
2019-05-09T05:09:45.126Z,100247.24
2019-05-09T05:12:18.599Z,100239.95
2019-05-09T05:14:50.373Z,100244.02
2019-05-09T05:17:22.583Z,100242.20
2019-05-09T05:19:55.131Z,100241.63
2019-05-09T05:22:28.838Z,100233.87
2019-05-09T05:25:02.533Z,100232.22
2019-05-09T05:27:34.203Z,100231.32
2019-05-09T05:30:07.740Z,100237.88
2019-05-09T05:32:41.929Z,100240.84
2019-05-09T05:35:15.322Z,100244.34
2019-05-09T05:37:49.030Z,100238.37
2019-05-09T05:40:21.315Z,100237.80
2019-05-09T05:42:53.151Z,100233.39
2019-05-09T05:45:28.483Z,100233.81
2019-05-09T05:48:11.221Z,100232.13
2019-05-09T05:50:43.419Z,100235.07
2019-05-09T05:53:15.137Z,100232.20
2019-05-09T05:55:50.490Z,100235.17
2019-05-09T05:58:20.505Z,100236.75
2019-05-09T06:00:52.387Z,100249.31
2019-05-09T06:03:24.444Z,100246.06
2019-05-09T06:05:58.487Z,100241.16
2019-05-09T06:08:29.716Z,100243.34
2019-05-09T06:11:01.376Z,100252.53
2019-05-09T06:13:33.329Z,100252.75
2019-05-09T06:16:05.275Z,100252.03
2019-05-09T06:18:38.463Z,100250.53
2019-05-09T06:21:10.351Z,100254.69
2019-05-09T06:23:42.107Z,100245.95
2019-05-09T06:26:13.871Z,100247.56
2019-05-09T06:28:48.079Z,100248.67
2019-05-09T06:31:19.535Z,100242.92
2019-05-09T06:33:53.569Z,100244.27
2019-05-09T06:36:25.011Z,100241.31
2019-05-09T06:38:58.771Z,100231.89
2019-05-09T06:41:30.684Z,100230.21
2019-05-09T06:44:14.325Z,100235.25
2019-05-09T06:46:39.304Z,100229.16
2019-05-09T06:49:26.809Z,100236.53
2019-05-09T06:51:47.648Z,100237.73
2019-05-09T06:54:19.316Z,100228.52
2019-05-09T06:56:51.378Z,100233.23
2019-05-09T06:59:23.443Z,100233.41
2019-05-09T07:01:59.713Z,100239.16
2019-05-09T07:04:39.128Z,100240.73
2019-05-09T07:07:21.659Z,100234.31
2019-05-09T07:09:58.702Z,100232.84
2019-05-09T07:12:30.704Z,100245.88
2019-05-09T07:15:02.572Z,100239.56
2019-05-09T07:17:34.460Z,100246.34
2019-05-09T07:20:08.400Z,100245.11
2019-05-09T07:22:41.928Z,100248.11
2019-05-09T07:25:24.697Z,100249.23
2019-05-09T07:27:58.644Z,100247.53
2019-05-09T07:30:48.110Z,100251.87
2019-05-09T07:33:21.540Z,100245.80
2019-05-09T07:35:53.391Z,100261.92
2019-05-09T07:38:32.122Z,100258.70
2019-05-09T07:41:04.196Z,100261.62
2019-05-09T07:43:38.321Z,100268.64
2019-05-09T07:46:20.097Z,100270.17
2019-05-09T07:48:53.642Z,100262.47
2019-05-09T07:51:27.503Z,100270.81
2019-05-09T07:53:59.232Z,100278.08
2019-05-09T07:56:31.021Z,100271.67
2019-05-09T07:59:03.196Z,100273.12
2019-05-09T08:01:35.463Z,100274.73
2019-05-09T08:04:07.764Z,100272.66
2019-05-09T08:06:39.895Z,100269.45
2019-05-09T08:09:12.063Z,100268.71
2019-05-09T08:11:44.012Z,100271.84
2019-05-09T08:14:17.580Z,100263.47
2019-05-09T08:16:49.609Z,100266.42
2019-05-09T08:19:21.361Z,100256.70
2019-05-09T08:21:53.210Z,100261.49
2019-05-09T08:24:27.569Z,100257.05
2019-05-09T08:26:58.779Z,100254.09
2019-05-09T08:29:31.559Z,100246.17
2019-05-09T08:32:03.422Z,100242.83
2019-05-09T08:34:37.535Z,100238.61
2019-05-09T08:37:12.516Z,100244.36
2019-05-09T08:39:42.485Z,100245.50
2019-05-09T08:43:10.025Z,100240.64
2019-05-09T08:46:00.879Z,100249.63
2019-05-09T08:48:33.528Z,100252.67
2019-05-09T08:55:24.794Z,100258.29
2019-05-09T08:57:58.625Z,100257.60
2019-05-09T09:00:30.150Z,100257.36
2019-05-09T09:03:02.154Z,100252.58
2019-05-09T09:05:34.172Z,100255.90
2019-05-09T09:08:08.369Z,100261.16
2019-05-09T09:10:39.617Z,100260.34
2019-05-09T09:13:11.353Z,100265.94
2019-05-09T09:16:05.579Z,100269.45
2019-05-09T09:18:17.932Z,100270.08
2019-05-09T09:20:49.851Z,100268.81
2019-05-09T09:23:22.222Z,100271.83
2019-05-09T09:25:54.096Z,100262.79
2019-05-09T09:28:27.641Z,100273.44
2019-05-09T09:31:00.495Z,100272.16
2019-05-09T09:33:32.131Z,100264.77
2019-05-09T09:36:03.872Z,100263.31
2019-05-09T09:38:37.542Z,100262.55
2019-05-09T09:41:09.637Z,100255.78
2019-05-09T09:43:41.404Z,100256.70
2019-05-09T09:46:14.825Z,100264.46
2019-05-09T09:53:08.637Z,100269.09
2019-05-09T09:55:40.576Z,100268.27
2019-05-09T09:58:30.894Z,100264.75
2019-05-09T10:05:38.821Z,100267.33
2019-05-09T10:08:13.977Z,100257.78
2019-05-09T10:10:44.337Z,100256.84
2019-05-09T10:13:18.325Z,100263.48
2019-05-09T10:16:00.830Z,100269.37
2019-05-09T10:18:34.489Z,100276.59
2019-05-09T10:21:10.465Z,100276.23
2019-05-09T10:23:42.109Z,100274.17
2019-05-09T10:26:14.288Z,100280.34
2019-05-09T10:28:48.378Z,100281.67
2019-05-09T10:31:19.451Z,100285.27
2019-05-09T10:33:51.308Z,100289.36
2019-05-09T10:36:23.479Z,100284.58
2019-05-09T10:38:58.206Z,100287.54
2019-05-09T10:41:29.329Z,100291.55
2019-05-09T10:44:02.587Z,100289.69
2019-05-09T10:46:52.428Z,100285.81
2019-05-09T10:49:17.645Z,100285.56
2019-05-09T10:51:49.592Z,100284.70
2019-05-09T10:54:21.576Z,100287.19
2019-05-09T10:56:53.739Z,100293.54
2019-05-09T10:59:27.561Z,100292.48
2019-05-09T11:01:59.213Z,100300.08
2019-05-09T11:04:31.380Z,100297.44
2019-05-09T11:07:03.254Z,100298.84
2019-05-09T11:09:35.200Z,100296.03
2019-05-09T11:12:07.944Z,100293.26
2019-05-09T11:14:40.168Z,100293.09
2019-05-09T11:17:18.440Z,100287.43
2019-05-09T11:19:48.087Z,100280.05
2019-05-09T11:22:19.129Z,100274.69
2019-05-09T11:24:51.405Z,100286.37
2019-05-09T11:27:23.564Z,100289.75
2019-05-09T11:29:57.684Z,100297.29
2019-05-09T11:32:29.354Z,100286.67
2019-05-09T11:35:01.193Z,100293.14
2019-05-09T11:37:32.960Z,100288.92
2019-05-09T11:40:06.866Z,100292.30
2019-05-09T11:42:39.037Z,100290.77
2019-05-09T11:45:11.120Z,100282.51
2019-05-09T11:47:46.493Z,100283.48
2019-05-09T11:50:22.541Z,100289.66
2019-05-09T11:52:49.970Z,100296.53
2019-05-09T11:55:34.994Z,100297.97
2019-05-09T11:57:55.158Z,100301.51
2019-05-09T12:00:29.223Z,100298.79
2019-05-09T12:03:00.165Z,100278.13
2019-05-09T12:05:32.451Z,100271.16
2019-05-09T12:08:04.827Z,100273.42
2019-05-09T12:10:38.257Z,100270.36
2019-05-09T12:13:10.084Z,100277.95
2019-05-09T12:15:42.142Z,100274.83
2019-05-09T12:18:14.219Z,100278.56
2019-05-09T12:20:48.283Z,100281.67
2019-05-09T12:23:20.057Z,100290.94
2019-05-09T12:25:51.849Z,100285.89
2019-05-09T12:28:23.697Z,100297.66
2019-05-09T12:30:55.900Z,100297.41
2019-05-09T12:33:28.468Z,100300.34
2019-05-09T12:36:00.948Z,100287.77
2019-05-09T12:38:32.958Z,100291.83
2019-05-09T12:41:04.648Z,100294.44
2019-05-09T12:43:38.184Z,100307.16
2019-05-09T12:46:10.075Z,100308.86
2019-05-09T12:48:42.093Z,100312.63
2019-05-09T12:51:13.947Z,100315.52
2019-05-09T12:53:48.445Z,100314.16
2019-05-09T12:56:20.456Z,100308.73
2019-05-09T12:58:52.449Z,100307.59
2019-05-09T13:01:24.398Z,100331.71
2019-05-09T13:03:58.302Z,100329.41
2019-05-09T13:06:30.006Z,100342.03
2019-05-09T13:09:01.705Z,100356.60
2019-05-09T13:11:35.104Z,100358.03
2019-05-09T13:14:10.051Z,100363.30
2019-05-09T13:16:54.376Z,100361.69
2019-05-09T13:19:27.958Z,100337.03
2019-05-09T13:21:59.859Z,100336.92
2019-05-09T13:24:31.701Z,100344.52
2019-05-09T13:27:03.803Z,100355.04
2019-05-09T13:29:37.919Z,100365.03
2019-05-09T13:32:09.136Z,100379.45
2019-05-09T13:34:40.798Z,100380.81
2019-05-09T13:37:12.776Z,100384.60
2019-05-09T13:39:44.836Z,100386.03
2019-05-09T13:42:19.666Z,100394.52
2019-05-09T13:44:50.001Z,100396.70
2019-05-09T13:47:21.636Z,100401.32
2019-05-09T13:49:55.969Z,100410.14
2019-05-09T13:52:27.971Z,100417.58
2019-05-09T13:54:59.546Z,100416.30
2019-05-09T13:57:31.235Z,100418.53
2019-05-09T14:00:02.890Z,100422.30
2019-05-09T14:02:35.073Z,100422.95
2019-05-09T14:05:09.010Z,100429.21
2019-05-09T14:07:39.940Z,100435.21
2019-05-09T14:10:11.588Z,100426.63
2019-05-09T14:12:43.754Z,100422.14
2019-05-09T14:15:15.292Z,100422.03
2019-05-09T14:17:52.615Z,100422.46
2019-05-09T14:20:20.877Z,100425.69
2019-05-09T14:22:52.842Z,100426.55
2019-05-09T14:25:24.615Z,100423.28
2019-05-09T14:27:56.650Z,100421.67
2019-05-09T14:30:28.726Z,100416.95
2019-05-09T14:33:00.506Z,100412.22
2019-05-09T14:35:32.240Z,100420.20
2019-05-09T14:38:04.519Z,100423.83
2019-05-09T14:40:37.404Z,100417.88
2019-05-09T14:43:09.926Z,100417.16
2019-05-09T14:45:41.640Z,100424.76
2019-05-09T14:48:13.639Z,100430.77
2019-05-09T14:50:45.684Z,100428.84
2019-05-09T14:53:18.165Z,100432.05
2019-05-09T14:55:50.017Z,100434.20
2019-05-09T14:58:21.879Z,100427.33
2019-05-09T15:00:53.846Z,100430.59
2019-05-09T15:03:27.762Z,100434.14
2019-05-09T15:05:59.724Z,100443.73
2019-05-09T15:08:31.585Z,100445.81
2019-05-09T15:11:03.740Z,100451.50
2019-05-09T15:13:35.700Z,100453.12
2019-05-09T15:16:08.850Z,100458.78
2019-05-09T15:18:40.671Z,100453.66
2019-05-09T15:21:12.533Z,100454.22
2019-05-09T15:23:44.411Z,100459.27
2019-05-09T15:26:17.677Z,100457.52
2019-05-09T15:28:49.473Z,100458.31
2019-05-09T15:31:21.504Z,100465.45
2019-05-09T15:33:53.175Z,100465.30
2019-05-09T15:36:25.018Z,100468.03
2019-05-09T15:38:59.109Z,100465.16
2019-05-09T15:41:30.283Z,100463.76
2019-05-09T15:44:01.942Z,100467.91
2019-05-09T15:46:51.520Z,100467.97
2019-05-09T15:49:23.697Z,100465.23
2019-05-09T15:51:55.344Z,100467.30
2019-05-09T15:54:29.366Z,100469.84
2019-05-09T15:57:00.803Z,100476.70
2019-05-09T15:59:32.954Z,100480.13
2019-05-09T16:02:04.839Z,100483.95
2019-05-09T16:04:40.180Z,100488.13
2019-05-09T16:07:10.132Z,100492.50
2019-05-09T16:09:42.179Z,100495.60
2019-05-09T16:12:14.044Z,100496.80
2019-05-09T16:14:48.492Z,100498.95
2019-05-09T16:17:19.525Z,100505.34
2019-05-09T16:19:51.275Z,100509.20
2019-05-09T16:22:23.391Z,100508.22
2019-05-09T16:24:55.459Z,100511.09
2019-05-09T16:27:27.466Z,100519.69
2019-05-09T16:29:59.450Z,100525.75
2019-05-09T16:32:31.516Z,100526.41
2019-05-09T16:35:03.172Z,100533.03
2019-05-09T16:37:52.554Z,100539.89
2019-05-09T16:40:09.317Z,100536.86
2019-05-09T16:42:41.424Z,100538.90
2019-05-09T16:45:13.626Z,100540.00
2019-05-09T16:47:45.245Z,100543.60
2019-05-09T16:50:18.011Z,100551.25
2019-05-09T16:52:49.993Z,100549.03
2019-05-09T16:55:23.289Z,100554.58
2019-05-09T16:57:57.243Z,100555.16
2019-05-09T17:00:38.132Z,100555.16
2019-05-09T17:03:11.307Z,100562.09
2019-05-09T17:05:43.027Z,100561.45
2019-05-09T17:08:14.879Z,100565.38
2019-05-09T17:10:48.643Z,100577.95
2019-05-09T17:13:20.255Z,100578.08
2019-05-09T17:15:52.124Z,100578.17
2019-05-09T17:18:23.860Z,100589.34
2019-05-09T17:21:18.474Z,100577.97
2019-05-09T17:23:43.370Z,100587.77
2019-05-09T17:26:17.583Z,100602.22
2019-05-09T17:28:49.151Z,100606.52
2019-05-09T17:31:20.803Z,100607.34
2019-05-09T17:33:53.074Z,100616.80
2019-05-09T17:36:24.830Z,100611.86
2019-05-09T17:38:56.776Z,100612.11
2019-05-09T17:41:28.840Z,100617.55
2019-05-09T17:44:00.518Z,100623.63
2019-05-09T17:46:32.664Z,100625.88
2019-05-09T17:49:04.446Z,100631.91
2019-05-09T17:51:36.524Z,100632.48
2019-05-09T17:54:08.414Z,100637.39
2019-05-09T17:56:40.334Z,100636.08
2019-05-09T17:59:12.482Z,100641.58
2019-05-09T18:01:44.670Z,100644.87
2019-05-09T18:04:17.963Z,100637.89
2019-05-09T18:06:50.952Z,100647.70
2019-05-09T18:09:22.799Z,100646.39
2019-05-09T18:11:57.849Z,100655.10
2019-05-09T18:14:29.591Z,100649.50
2019-05-09T18:17:01.253Z,100651.20
2019-05-09T18:19:33.009Z,100648.03
2019-05-09T18:22:04.995Z,100643.44
2019-05-09T18:24:37.756Z,100645.10
2019-05-09T18:27:09.909Z,100647.32
2019-05-09T18:29:41.605Z,100646.50
2019-05-09T18:32:33.537Z,100648.41
2019-05-09T18:35:17.070Z,100646.00
2019-05-09T18:37:49.121Z,100650.37
2019-05-09T18:40:21.345Z,100653.09
2019-05-09T18:42:53.526Z,100656.30
2019-05-09T18:45:28.051Z,100650.60
2019-05-09T18:47:59.249Z,100651.96
2019-05-09T18:50:31.107Z,100651.73
2019-05-09T18:53:03.164Z,100650.67
2019-05-09T18:55:35.141Z,100650.67
2019-05-09T18:58:07.587Z,100653.09
2019-05-09T19:00:39.488Z,100650.11
2019-05-09T19:03:11.213Z,100649.55
2019-05-09T19:05:43.570Z,100642.47
2019-05-09T19:08:15.579Z,100644.34
2019-05-09T19:10:51.799Z,100641.41
2019-05-09T19:13:20.940Z,100641.19
2019-05-09T19:15:58.417Z,100637.75
2019-05-09T19:18:41.356Z,100643.25
2019-05-09T19:21:15.672Z,100645.28
2019-05-09T19:23:47.932Z,100641.33
2019-05-09T19:26:24.855Z,100646.03
2019-05-09T19:28:56.877Z,100635.03
2019-05-09T19:31:29.487Z,100637.28
2019-05-09T19:34:01.237Z,100629.02
2019-05-09T19:36:36.010Z,100621.27
2019-05-09T19:39:09.721Z,100627.64
2019-05-09T19:41:41.817Z,100638.63
2019-05-09T19:44:13.589Z,100637.94
2019-05-09T19:46:47.295Z,100638.31
2019-05-09T19:49:19.467Z,100647.35
2019-05-09T19:51:51.440Z,100648.27
2019-05-09T19:54:24.243Z,100648.61
2019-05-09T19:56:55.972Z,100651.10
2019-05-09T19:59:27.918Z,100651.97
2019-05-09T20:01:59.882Z,100653.64
2019-05-09T20:04:31.568Z,100649.58
2019-05-09T20:07:03.620Z,100655.55
2019-05-09T20:09:37.124Z,100653.67
2019-05-09T20:12:22.701Z,100658.77
2019-05-09T20:14:55.327Z,100662.00
2019-05-09T20:17:28.698Z,100669.07
2019-05-09T20:20:01.062Z,100669.87
2019-05-09T20:22:33.013Z,100670.92
2019-05-09T20:25:06.947Z,100673.91
2019-05-09T20:27:38.585Z,100671.19
2019-05-09T20:30:12.270Z,100677.96
2019-05-09T20:32:44.009Z,100672.02
2019-05-09T20:35:16.611Z,100684.22
2019-05-09T20:37:48.896Z,100683.12
2019-05-09T20:40:21.362Z,100683.68
2019-05-09T20:42:53.649Z,100688.28
2019-05-09T20:45:26.144Z,100688.81
2019-05-09T20:47:58.395Z,100685.26
2019-05-09T20:50:30.351Z,100682.05
2019-05-09T20:53:23.280Z,100683.40
2019-05-09T20:55:58.015Z,100685.81
2019-05-09T20:58:30.658Z,100680.38
2019-05-09T21:01:02.789Z,100680.35
2019-05-09T21:03:34.843Z,100683.01
2019-05-09T21:06:07.040Z,100691.88
2019-05-09T21:08:39.080Z,100688.02
2019-05-09T21:11:11.345Z,100685.00
2019-05-09T21:13:48.474Z,100690.12
2019-05-09T21:16:17.416Z,100681.20
2019-05-09T21:18:49.886Z,100685.29
2019-05-09T21:21:21.899Z,100697.74
2019-05-09T21:23:54.751Z,100697.72
2019-05-09T21:26:26.807Z,100709.02
2019-05-09T21:28:59.300Z,100709.55
2019-05-09T21:31:31.359Z,100709.00
2019-05-09T21:34:03.598Z,100710.83
2019-05-09T21:36:36.294Z,100716.75
2019-05-09T21:39:07.966Z,100716.66
2019-05-09T21:41:40.255Z,100719.34
2019-05-09T21:44:12.291Z,100725.00
2019-05-09T21:46:44.269Z,100726.56
2019-05-09T21:49:16.454Z,100724.89
2019-05-09T21:51:48.198Z,100728.92
2019-05-09T21:54:20.063Z,100724.27
2019-05-09T21:56:53.223Z,100716.96
2019-05-09T21:59:27.604Z,100718.58
2019-05-09T22:01:59.543Z,100711.84
2019-05-09T22:04:31.380Z,100705.13
2019-05-09T22:07:03.243Z,100704.13
2019-05-09T22:09:35.525Z,100697.70
2019-05-09T22:12:07.971Z,100694.28
2019-05-09T22:14:39.849Z,100698.45
2019-05-09T22:17:33.925Z,100695.86
2019-05-09T22:20:07.094Z,100705.97
2019-05-09T22:22:39.223Z,100709.30
2019-05-09T22:25:12.942Z,100707.73
2019-05-09T22:27:45.023Z,100703.41
2019-05-09T22:30:17.407Z,100717.73
2019-05-09T22:32:49.204Z,100715.30
2019-05-09T22:35:21.774Z,100719.31
2019-05-09T22:37:53.424Z,100722.77
2019-05-09T22:40:25.276Z,100729.20
2019-05-09T22:42:56.817Z,100732.09
2019-05-09T22:45:29.082Z,100740.17
2019-05-09T22:48:01.701Z,100738.77
2019-05-09T22:50:33.347Z,100735.45
2019-05-09T22:53:05.615Z,100736.48
2019-05-09T22:55:37.852Z,100733.98
2019-05-09T22:58:09.808Z,100739.38
2019-05-09T23:00:41.905Z,100737.70
2019-05-09T23:03:14.310Z,100745.00
2019-05-09T23:05:46.698Z,100745.20
2019-05-09T23:08:18.718Z,100749.24
2019-05-09T23:10:53.414Z,100744.67
2019-05-09T23:13:25.047Z,100745.73
2019-05-09T23:15:56.757Z,100741.67
2019-05-09T23:18:28.879Z,100741.94
2019-05-09T23:21:01.319Z,100743.23
2019-05-09T23:23:34.826Z,100738.64
2019-05-09T23:26:06.722Z,100726.98
2019-05-09T23:28:38.724Z,100722.38
2019-05-09T23:31:12.345Z,100723.20
2019-05-09T23:33:45.177Z,100720.52
2019-05-09T23:36:16.771Z,100723.00
2019-05-09T23:39:08.607Z,100727.36
2019-05-09T23:41:40.344Z,100724.13
2019-05-09T23:44:12.154Z,100717.67
2019-05-09T23:46:44.205Z,100721.77
2019-05-09T23:49:16.062Z,100718.58
2019-05-09T23:51:50.891Z,100713.19
2019-05-09T23:54:46.608Z,100717.55
2019-05-09T23:57:32.505Z,100717.58
